sensor_id;sensor_type;location;lat;lon;timestamp;pressure;altitude;pressure_sealevel;temperature;humidity
9335;BME280;4706;41.844;26.082;2022-10-16T00:02:24;101451.19;;;14.70;61.71
9335;BME280;4706;41.844;26.082;2022-10-16T00:04:50;101454.69;;;14.75;61.92
9335;BME280;4706;41.844;26.082;2022-10-16T00:07:15;101459.31;;;14.80;61.74
9335;BME280;4706;41.844;26.082;2022-10-16T00:09:41;101461.53;;;14.78;61.70
9335;BME280;4706;41.844;26.082;2022-10-16T00:12:06;101458.28;;;14.76;61.77
9335;BME280;4706;41.844;26.082;2022-10-16T00:14:32;101460.84;;;14.72;61.53
9335;BME280;4706;41.844;26.082;2022-10-16T00:16:58;101461.44;;;14.69;61.39
9335;BME280;4706;41.844;26.082;2022-10-16T00:19:23;101458.69;;;14.55;61.70
9335;BME280;4706;41.844;26.082;2022-10-16T00:21:49;101466.06;;;14.60;61.86
9335;BME280;4706;41.844;26.082;2022-10-16T00:24:14;101462.56;;;14.54;61.86
9335;BME280;4706;41.844;26.082;2022-10-16T00:26:40;101459.66;;;14.46;62.37
9335;BME280;4706;41.844;26.082;2022-10-16T00:29:07;101458.91;;;14.40;62.15
9335;BME280;4706;41.844;26.082;2022-10-16T00:31:33;101449.41;;;14.46;62.54
9335;BME280;4706;41.844;26.082;2022-10-16T00:33:59;101460.53;;;14.60;62.03
9335;BME280;4706;41.844;26.082;2022-10-16T00:36:26;101463.09;;;14.56;61.97
9335;BME280;4706;41.844;26.082;2022-10-16T00:38:56;101456.94;;;14.60;61.85
9335;BME280;4706;41.844;26.082;2022-10-16T00:41:25;101462.47;;;14.73;61.53
9335;BME280;4706;41.844;26.082;2022-10-16T00:43:58;101460.75;;;14.64;61.58
9335;BME280;4706;41.844;26.082;2022-10-16T00:46:41;101450.56;;;14.59;61.47
9335;BME280;4706;41.844;26.082;2022-10-16T00:49:10;101458.19;;;14.67;61.81
9335;BME280;4706;41.844;26.082;2022-10-16T00:51:40;101458.56;;;14.61;61.79
9335;BME280;4706;41.844;26.082;2022-10-16T00:54:32;101468.41;;;14.53;61.90
9335;BME280;4706;41.844;26.082;2022-10-16T00:57:04;101469.84;;;14.50;62.25
9335;BME280;4706;41.844;26.082;2022-10-16T00:59:34;101471.78;;;14.50;62.18
9335;BME280;4706;41.844;26.082;2022-10-16T01:02:01;101479.97;;;14.55;62.36
9335;BME280;4706;41.844;26.082;2022-10-16T01:04:32;101474.75;;;14.53;62.04
9335;BME280;4706;41.844;26.082;2022-10-16T01:07:33;101473.28;;;14.42;62.31
9335;BME280;4706;41.844;26.082;2022-10-16T01:13:04;101484.03;;;14.44;62.43
9335;BME280;4706;41.844;26.082;2022-10-16T01:15:39;101485.88;;;14.34;62.82
9335;BME280;4706;41.844;26.082;2022-10-16T01:20:45;101470.19;;;14.44;63.19
9335;BME280;4706;41.844;26.082;2022-10-16T01:26:11;101483.41;;;14.33;62.77
9335;BME280;4706;41.844;26.082;2022-10-16T01:31:08;101486.38;;;14.37;62.90
9335;BME280;4706;41.844;26.082;2022-10-16T01:33:41;101488.84;;;14.38;63.00
9335;BME280;4706;41.844;26.082;2022-10-16T01:36:13;101492.66;;;14.42;62.94
9335;BME280;4706;41.844;26.082;2022-10-16T01:38:43;101486.69;;;14.35;63.15
9335;BME280;4706;41.844;26.082;2022-10-16T01:41:17;101492.44;;;14.39;62.95
9335;BME280;4706;41.844;26.082;2022-10-16T01:44:07;101501.66;;;14.34;62.89
9335;BME280;4706;41.844;26.082;2022-10-16T01:46:36;101500.44;;;14.40;62.59
9335;BME280;4706;41.844;26.082;2022-10-16T01:49:03;101504.94;;;14.36;62.22
9335;BME280;4706;41.844;26.082;2022-10-16T01:51:29;101501.88;;;14.38;62.29
9335;BME280;4706;41.844;26.082;2022-10-16T01:53:58;101505.63;;;14.28;62.30
9335;BME280;4706;41.844;26.082;2022-10-16T01:56:26;101509.00;;;14.25;62.58
9335;BME280;4706;41.844;26.082;2022-10-16T01:58:55;101511.47;;;14.26;62.55
9335;BME280;4706;41.844;26.082;2022-10-16T02:01:24;101510.94;;;14.24;62.60
9335;BME280;4706;41.844;26.082;2022-10-16T02:03:54;101510.28;;;14.14;62.15
9335;BME280;4706;41.844;26.082;2022-10-16T02:06:21;101518.69;;;14.08;62.69
9335;BME280;4706;41.844;26.082;2022-10-16T02:08:48;101513.91;;;14.14;62.40
9335;BME280;4706;41.844;26.082;2022-10-16T02:11:13;101524.53;;;14.07;62.83
9335;BME280;4706;41.844;26.082;2022-10-16T02:13:43;101524.13;;;14.14;62.50
9335;BME280;4706;41.844;26.082;2022-10-16T02:16:11;101527.53;;;14.11;62.34
9335;BME280;4706;41.844;26.082;2022-10-16T02:18:38;101532.75;;;14.12;62.73
9335;BME280;4706;41.844;26.082;2022-10-16T02:21:19;101528.13;;;14.07;62.07
9335;BME280;4706;41.844;26.082;2022-10-16T02:26:15;101538.28;;;14.12;62.38
9335;BME280;4706;41.844;26.082;2022-10-16T02:28:52;101542.31;;;14.01;62.49
9335;BME280;4706;41.844;26.082;2022-10-16T02:31:25;101533.56;;;13.94;62.41
9335;BME280;4706;41.844;26.082;2022-10-16T02:33:55;101542.91;;;13.98;62.01
9335;BME280;4706;41.844;26.082;2022-10-16T02:36:23;101549.94;;;13.90;62.48
9335;BME280;4706;41.844;26.082;2022-10-16T02:38:49;101548.38;;;13.84;62.89
9335;BME280;4706;41.844;26.082;2022-10-16T02:41:15;101550.53;;;13.87;62.29
9335;BME280;4706;41.844;26.082;2022-10-16T02:43:41;101553.91;;;13.84;62.80
9335;BME280;4706;41.844;26.082;2022-10-16T02:46:06;101553.69;;;13.80;62.90
9335;BME280;4706;41.844;26.082;2022-10-16T02:48:32;101558.91;;;13.82;62.89
9335;BME280;4706;41.844;26.082;2022-10-16T02:50:57;101557.28;;;13.81;63.16
9335;BME280;4706;41.844;26.082;2022-10-16T02:53:23;101565.25;;;13.82;63.11
9335;BME280;4706;41.844;26.082;2022-10-16T02:55:48;101557.72;;;13.88;62.63
9335;BME280;4706;41.844;26.082;2022-10-16T02:58:14;101564.97;;;13.84;62.88
9335;BME280;4706;41.844;26.082;2022-10-16T03:00:40;101555.38;;;13.76;62.84
9335;BME280;4706;41.844;26.082;2022-10-16T03:03:05;101554.53;;;13.81;62.64
9335;BME280;4706;41.844;26.082;2022-10-16T03:05:31;101558.03;;;13.87;62.68
9335;BME280;4706;41.844;26.082;2022-10-16T03:07:56;101574.25;;;13.93;62.43
9335;BME280;4706;41.844;26.082;2022-10-16T03:10:25;101574.03;;;13.90;62.78
9335;BME280;4706;41.844;26.082;2022-10-16T03:12:50;101578.28;;;13.82;62.48
9335;BME280;4706;41.844;26.082;2022-10-16T03:15:16;101571.09;;;13.81;62.31
9335;BME280;4706;41.844;26.082;2022-10-16T03:17:41;101587.09;;;13.84;62.23
9335;BME280;4706;41.844;26.082;2022-10-16T03:20:07;101581.78;;;13.88;61.89
9335;BME280;4706;41.844;26.082;2022-10-16T03:22:33;101583.22;;;13.85;62.14
9335;BME280;4706;41.844;26.082;2022-10-16T03:24:58;101585.97;;;13.85;61.65
9335;BME280;4706;41.844;26.082;2022-10-16T03:27:23;101587.63;;;13.86;61.66
9335;BME280;4706;41.844;26.082;2022-10-16T03:29:49;101589.66;;;13.80;62.01
9335;BME280;4706;41.844;26.082;2022-10-16T03:32:14;101576.53;;;13.67;62.48
9335;BME280;4706;41.844;26.082;2022-10-16T03:34:40;101591.19;;;13.68;61.91
9335;BME280;4706;41.844;26.082;2022-10-16T03:37:05;101580.72;;;13.65;61.93
9335;BME280;4706;41.844;26.082;2022-10-16T03:39:31;101589.53;;;13.67;61.80
9335;BME280;4706;41.844;26.082;2022-10-16T03:41:56;101590.44;;;13.62;62.07
9335;BME280;4706;41.844;26.082;2022-10-16T03:44:22;101589.25;;;13.68;61.88
9335;BME280;4706;41.844;26.082;2022-10-16T03:46:48;101597.19;;;13.75;62.03
9335;BME280;4706;41.844;26.082;2022-10-16T03:49:13;101596.34;;;13.74;61.47
9335;BME280;4706;41.844;26.082;2022-10-16T03:51:39;101597.31;;;13.65;61.90
9335;BME280;4706;41.844;26.082;2022-10-16T03:54:04;101609.50;;;13.64;61.71
9335;BME280;4706;41.844;26.082;2022-10-16T03:56:30;101604.03;;;13.58;61.53
9335;BME280;4706;41.844;26.082;2022-10-16T03:58:56;101600.97;;;13.60;61.82
9335;BME280;4706;41.844;26.082;2022-10-16T04:01:21;101609.84;;;13.57;61.67
9335;BME280;4706;41.844;26.082;2022-10-16T04:03:47;101602.97;;;13.54;62.04
9335;BME280;4706;41.844;26.082;2022-10-16T04:06:12;101611.78;;;13.56;62.13
9335;BME280;4706;41.844;26.082;2022-10-16T04:08:38;101604.31;;;13.57;62.29
9335;BME280;4706;41.844;26.082;2022-10-16T04:11:04;101599.38;;;13.54;61.97
9335;BME280;4706;41.844;26.082;2022-10-16T04:13:30;101590.22;;;13.58;61.86
9335;BME280;4706;41.844;26.082;2022-10-16T04:15:55;101583.63;;;13.54;62.08
9335;BME280;4706;41.844;26.082;2022-10-16T04:18:21;101592.66;;;13.60;62.25
9335;BME280;4706;41.844;26.082;2022-10-16T04:20:47;101590.22;;;13.58;62.59
9335;BME280;4706;41.844;26.082;2022-10-16T04:23:12;101608.13;;;13.61;62.43
9335;BME280;4706;41.844;26.082;2022-10-16T04:25:38;101615.31;;;13.62;62.55
9335;BME280;4706;41.844;26.082;2022-10-16T04:28:03;101620.53;;;13.64;62.76
9335;BME280;4706;41.844;26.082;2022-10-16T04:30:29;101617.69;;;13.69;62.78
9335;BME280;4706;41.844;26.082;2022-10-16T04:32:54;101624.38;;;13.68;62.52
9335;BME280;4706;41.844;26.082;2022-10-16T04:35:20;101622.66;;;13.72;62.32
9335;BME280;4706;41.844;26.082;2022-10-16T04:37:46;101631.53;;;13.69;62.65
9335;BME280;4706;41.844;26.082;2022-10-16T04:40:12;101641.19;;;13.71;62.13
9335;BME280;4706;41.844;26.082;2022-10-16T04:42:38;101649.56;;;13.66;62.18
9335;BME280;4706;41.844;26.082;2022-10-16T04:45:05;101643.78;;;13.63;62.36
9335;BME280;4706;41.844;26.082;2022-10-16T04:47:31;101641.78;;;13.68;62.36
9335;BME280;4706;41.844;26.082;2022-10-16T04:49:56;101642.97;;;13.62;61.92
9335;BME280;4706;41.844;26.082;2022-10-16T04:52:22;101645.91;;;13.71;62.25
9335;BME280;4706;41.844;26.082;2022-10-16T04:54:50;101651.13;;;13.72;62.00
9335;BME280;4706;41.844;26.082;2022-10-16T04:57:16;101652.81;;;13.68;61.92
9335;BME280;4706;41.844;26.082;2022-10-16T04:59:42;101656.66;;;13.72;61.88
9335;BME280;4706;41.844;26.082;2022-10-16T05:02:07;101654.34;;;13.79;62.08
9335;BME280;4706;41.844;26.082;2022-10-16T05:04:33;101657.94;;;13.80;61.65
9335;BME280;4706;41.844;26.082;2022-10-16T05:06:59;101664.00;;;13.82;61.94
9335;BME280;4706;41.844;26.082;2022-10-16T05:09:24;101662.81;;;13.88;61.87
9335;BME280;4706;41.844;26.082;2022-10-16T05:11:50;101663.09;;;13.87;61.57
9335;BME280;4706;41.844;26.082;2022-10-16T05:14:15;101658.41;;;13.87;61.42
9335;BME280;4706;41.844;26.082;2022-10-16T05:16:41;101660.28;;;13.92;61.48
9335;BME280;4706;41.844;26.082;2022-10-16T05:19:06;101655.41;;;13.83;61.30
9335;BME280;4706;41.844;26.082;2022-10-16T05:21:32;101644.50;;;13.73;61.33
9335;BME280;4706;41.844;26.082;2022-10-16T05:23:57;101661.25;;;13.82;61.45
9335;BME280;4706;41.844;26.082;2022-10-16T05:26:23;101663.69;;;13.83;61.05
9335;BME280;4706;41.844;26.082;2022-10-16T05:28:49;101660.28;;;13.92;61.03
9335;BME280;4706;41.844;26.082;2022-10-16T05:31:15;101666.81;;;14.01;60.43
9335;BME280;4706;41.844;26.082;2022-10-16T05:33:40;101669.41;;;13.92;60.57
9335;BME280;4706;41.844;26.082;2022-10-16T05:36:08;101674.94;;;13.92;60.79
9335;BME280;4706;41.844;26.082;2022-10-16T05:38:37;101669.66;;;13.96;60.59
9335;BME280;4706;41.844;26.082;2022-10-16T05:41:04;101683.41;;;14.01;60.42
9335;BME280;4706;41.844;26.082;2022-10-16T05:43:31;101687.53;;;14.03;60.30
9335;BME280;4706;41.844;26.082;2022-10-16T05:46:04;101694.63;;;14.09;59.86
9335;BME280;4706;41.844;26.082;2022-10-16T05:48:31;101700.47;;;14.08;60.01
9335;BME280;4706;41.844;26.082;2022-10-16T05:51:05;101703.75;;;14.10;60.13
9335;BME280;4706;41.844;26.082;2022-10-16T05:53:34;101710.41;;;14.09;60.09
9335;BME280;4706;41.844;26.082;2022-10-16T05:56:00;101710.84;;;14.16;60.17
9335;BME280;4706;41.844;26.082;2022-10-16T05:58:29;101707.97;;;14.26;59.50
9335;BME280;4706;41.844;26.082;2022-10-16T06:01:03;101711.56;;;14.27;59.35
9335;BME280;4706;41.844;26.082;2022-10-16T06:03:29;101716.50;;;14.30;60.01
9335;BME280;4706;41.844;26.082;2022-10-16T06:05:55;101718.81;;;14.42;59.93
9335;BME280;4706;41.844;26.082;2022-10-16T06:08:22;101713.19;;;14.52;60.00
9335;BME280;4706;41.844;26.082;2022-10-16T06:10:48;101713.31;;;14.61;59.69
9335;BME280;4706;41.844;26.082;2022-10-16T06:13:15;101709.63;;;14.65;59.79
9335;BME280;4706;41.844;26.082;2022-10-16T06:15:42;101708.56;;;14.80;59.56
9335;BME280;4706;41.844;26.082;2022-10-16T06:18:10;101710.06;;;14.91;59.29
9335;BME280;4706;41.844;26.082;2022-10-16T06:20:37;101712.44;;;14.98;59.51
9335;BME280;4706;41.844;26.082;2022-10-16T06:23:03;101706.41;;;15.10;58.56
9335;BME280;4706;41.844;26.082;2022-10-16T06:25:32;101715.59;;;15.24;58.74
9335;BME280;4706;41.844;26.082;2022-10-16T06:27:58;101712.44;;;15.44;58.68
9335;BME280;4706;41.844;26.082;2022-10-16T06:30:24;101711.22;;;15.64;57.98
9335;BME280;4706;41.844;26.082;2022-10-16T06:32:49;101714.13;;;15.87;57.46
9335;BME280;4706;41.844;26.082;2022-10-16T06:35:15;101719.47;;;16.11;56.29
9335;BME280;4706;41.844;26.082;2022-10-16T06:37:40;101716.47;;;16.21;56.52
9335;BME280;4706;41.844;26.082;2022-10-16T06:40:06;101717.38;;;16.44;55.42
9335;BME280;4706;41.844;26.082;2022-10-16T06:42:32;101717.31;;;16.58;55.77
9335;BME280;4706;41.844;26.082;2022-10-16T06:44:58;101720.47;;;16.79;55.46
9335;BME280;4706;41.844;26.082;2022-10-16T06:47:23;101724.75;;;17.07;54.83
9335;BME280;4706;41.844;26.082;2022-10-16T06:49:49;101732.06;;;17.26;53.86
9335;BME280;4706;41.844;26.082;2022-10-16T06:52:15;101717.31;;;17.47;52.79
9335;BME280;4706;41.844;26.082;2022-10-16T06:54:40;101724.41;;;17.62;52.87
9335;BME280;4706;41.844;26.082;2022-10-16T06:57:06;101726.97;;;17.81;52.33
9335;BME280;4706;41.844;26.082;2022-10-16T06:59:31;101724.41;;;17.93;52.66
9335;BME280;4706;41.844;26.082;2022-10-16T07:01:57;101725.97;;;18.17;51.94
9335;BME280;4706;41.844;26.082;2022-10-16T07:04:23;101720.75;;;18.41;51.19
9335;BME280;4706;41.844;26.082;2022-10-16T07:06:48;101717.63;;;18.60;50.50
9335;BME280;4706;41.844;26.082;2022-10-16T07:09:14;101728.19;;;18.81;50.07
9335;BME280;4706;41.844;26.082;2022-10-16T07:11:40;101731.09;;;19.02;49.32
9335;BME280;4706;41.844;26.082;2022-10-16T07:14:16;101727.63;;;19.13;48.96
9335;BME280;4706;41.844;26.082;2022-10-16T07:16:42;101723.84;;;19.18;49.30
9335;BME280;4706;41.844;26.082;2022-10-16T07:19:08;101735.13;;;19.39;49.00
9335;BME280;4706;41.844;26.082;2022-10-16T07:21:34;101733.44;;;19.55;47.95
9335;BME280;4706;41.844;26.082;2022-10-16T07:24:05;101737.50;;;19.75;47.11
9335;BME280;4706;41.844;26.082;2022-10-16T07:26:34;101725.78;;;19.91;46.86
9335;BME280;4706;41.844;26.082;2022-10-16T07:29:00;101726.16;;;20.10;46.44
9335;BME280;4706;41.844;26.082;2022-10-16T07:31:26;101729.81;;;20.31;46.12
9335;BME280;4706;41.844;26.082;2022-10-16T07:33:52;101730.13;;;20.59;45.38
9335;BME280;4706;41.844;26.082;2022-10-16T07:36:19;101725.34;;;20.81;44.56
9335;BME280;4706;41.844;26.082;2022-10-16T07:38:46;101735.47;;;21.06;44.09
9335;BME280;4706;41.844;26.082;2022-10-16T07:41:14;101725.94;;;21.20;43.29
9335;BME280;4706;41.844;26.082;2022-10-16T07:43:48;101719.00;;;21.26;41.92
9335;BME280;4706;41.844;26.082;2022-10-16T07:46:14;101722.47;;;21.23;41.97
9335;BME280;4706;41.844;26.082;2022-10-16T07:48:40;101734.38;;;21.32;42.12
9335;BME280;4706;41.844;26.082;2022-10-16T07:51:06;101719.75;;;21.47;40.79
9335;BME280;4706;41.844;26.082;2022-10-16T07:53:33;101722.72;;;21.63;40.49
9335;BME280;4706;41.844;26.082;2022-10-16T07:56:00;101723.41;;;21.72;40.47
9335;BME280;4706;41.844;26.082;2022-10-16T07:58:27;101720.59;;;21.85;39.97
9335;BME280;4706;41.844;26.082;2022-10-16T08:00:53;101720.13;;;21.95;36.92
9335;BME280;4706;41.844;26.082;2022-10-16T08:03:18;101720.00;;;22.03;36.13
9335;BME280;4706;41.844;26.082;2022-10-16T08:05:44;101719.44;;;22.22;35.57
9335;BME280;4706;41.844;26.082;2022-10-16T08:08:14;101717.78;;;22.46;34.78
9335;BME280;4706;41.844;26.082;2022-10-16T08:10:40;101712.63;;;22.48;34.47
9335;BME280;4706;41.844;26.082;2022-10-16T08:13:05;101705.34;;;22.59;33.93
9335;BME280;4706;41.844;26.082;2022-10-16T08:15:31;101716.88;;;22.70;33.17
9335;BME280;4706;41.844;26.082;2022-10-16T08:17:58;101713.31;;;22.85;32.55
9335;BME280;4706;41.844;26.082;2022-10-16T08:20:25;101717.28;;;22.96;32.34
9335;BME280;4706;41.844;26.082;2022-10-16T08:22:51;101719.81;;;23.01;32.20
9335;BME280;4706;41.844;26.082;2022-10-16T08:25:16;101719.28;;;22.96;31.75
9335;BME280;4706;41.844;26.082;2022-10-16T08:27:42;101721.03;;;22.88;32.10
9335;BME280;4706;41.844;26.082;2022-10-16T08:30:08;101726.00;;;23.07;32.31
9335;BME280;4706;41.844;26.082;2022-10-16T08:32:34;101720.50;;;23.11;31.98
9335;BME280;4706;41.844;26.082;2022-10-16T08:34:59;101719.09;;;23.33;31.62
9335;BME280;4706;41.844;26.082;2022-10-16T08:37:29;101712.84;;;23.55;31.31
9335;BME280;4706;41.844;26.082;2022-10-16T08:39:54;101724.13;;;23.71;30.84
9335;BME280;4706;41.844;26.082;2022-10-16T08:45:23;101712.88;;;23.87;30.13
9335;BME280;4706;41.844;26.082;2022-10-16T08:48:04;101722.91;;;24.04;30.09
9335;BME280;4706;41.844;26.082;2022-10-16T08:50:37;101708.44;;;24.21;29.64
9335;BME280;4706;41.844;26.082;2022-10-16T08:53:04;101719.22;;;24.35;28.69
9335;BME280;4706;41.844;26.082;2022-10-16T08:55:37;101707.25;;;24.38;29.75
9335;BME280;4706;41.844;26.082;2022-10-16T08:58:15;101715.66;;;24.54;28.66
9335;BME280;4706;41.844;26.082;2022-10-16T09:00:42;101719.84;;;24.63;28.06
9335;BME280;4706;41.844;26.082;2022-10-16T09:06:08;101716.63;;;24.81;27.80
9335;BME280;4706;41.844;26.082;2022-10-16T09:09:01;101711.63;;;24.74;28.10
9335;BME280;4706;41.844;26.082;2022-10-16T09:11:34;101716.84;;;24.91;28.01
9335;BME280;4706;41.844;26.082;2022-10-16T09:21:30;101721.31;;;25.35;26.75
9335;BME280;4706;41.844;26.082;2022-10-16T09:24:24;101702.09;;;25.40;27.09
9335;BME280;4706;41.844;26.082;2022-10-16T09:26:50;101702.41;;;25.58;27.07
9335;BME280;4706;41.844;26.082;2022-10-16T09:29:18;101697.91;;;25.77;26.88
9335;BME280;4706;41.844;26.082;2022-10-16T09:31:45;101702.84;;;25.83;26.73
9335;BME280;4706;41.844;26.082;2022-10-16T09:34:33;101695.31;;;25.91;25.88
9335;BME280;4706;41.844;26.082;2022-10-16T09:37:03;101696.97;;;25.92;26.31
9335;BME280;4706;41.844;26.082;2022-10-16T09:39:29;101693.81;;;25.97;25.53
9335;BME280;4706;41.844;26.082;2022-10-16T09:41:56;101688.97;;;25.98;26.00
9335;BME280;4706;41.844;26.082;2022-10-16T09:44:28;101688.28;;;26.04;25.27
9335;BME280;4706;41.844;26.082;2022-10-16T09:47:05;101695.41;;;26.25;25.10
9335;BME280;4706;41.844;26.082;2022-10-16T09:49:37;101693.63;;;26.13;25.02
9335;BME280;4706;41.844;26.082;2022-10-16T09:52:21;101695.59;;;26.09;24.82
9335;BME280;4706;41.844;26.082;2022-10-16T09:54:58;101690.75;;;25.83;25.17
9335;BME280;4706;41.844;26.082;2022-10-16T09:57:24;101687.59;;;25.84;25.46
9335;BME280;4706;41.844;26.082;2022-10-16T09:59:54;101683.78;;;26.00;24.98
9335;BME280;4706;41.844;26.082;2022-10-16T10:02:30;101677.63;;;26.21;24.43
9335;BME280;4706;41.844;26.082;2022-10-16T10:04:56;101673.94;;;26.16;24.12
9335;BME280;4706;41.844;26.082;2022-10-16T10:07:32;101686.50;;;25.70;24.87
9335;BME280;4706;41.844;26.082;2022-10-16T10:10:00;101677.81;;;25.55;24.74
9335;BME280;4706;41.844;26.082;2022-10-16T10:12:31;101665.63;;;25.05;25.44
9335;BME280;4706;41.844;26.082;2022-10-16T10:15:12;101661.09;;;25.01;25.58
9335;BME280;4706;41.844;26.082;2022-10-16T10:17:47;101667.44;;;25.36;25.90
9335;BME280;4706;41.844;26.082;2022-10-16T10:20:38;101671.09;;;25.63;24.24
9335;BME280;4706;41.844;26.082;2022-10-16T10:23:22;101670.91;;;25.53;24.77
9335;BME280;4706;41.844;26.082;2022-10-16T10:26:06;101668.56;;;25.55;24.97
9335;BME280;4706;41.844;26.082;2022-10-16T10:28:57;101664.84;;;25.74;25.60
9335;BME280;4706;41.844;26.082;2022-10-16T10:31:28;101661.94;;;25.93;25.07
9335;BME280;4706;41.844;26.082;2022-10-16T10:34:21;101655.31;;;25.82;24.71
9335;BME280;4706;41.844;26.082;2022-10-16T10:36:59;101651.63;;;26.04;25.54
9335;BME280;4706;41.844;26.082;2022-10-16T10:39:34;101657.13;;;26.24;25.36
9335;BME280;4706;41.844;26.082;2022-10-16T10:42:57;101659.19;;;26.27;25.11
9335;BME280;4706;41.844;26.082;2022-10-16T10:45:37;101651.47;;;26.50;24.95
9335;BME280;4706;41.844;26.082;2022-10-16T10:50:43;101648.81;;;26.64;24.75
9335;BME280;4706;41.844;26.082;2022-10-16T10:56:00;101642.66;;;26.93;24.48
9335;BME280;4706;41.844;26.082;2022-10-16T10:59:07;101633.97;;;27.08;24.44
9335;BME280;4706;41.844;26.082;2022-10-16T11:01:45;101636.50;;;27.17;23.81
9335;BME280;4706;41.844;26.082;2022-10-16T11:06:57;101643.91;;;26.58;24.07
9335;BME280;4706;41.844;26.082;2022-10-16T11:12:00;101632.63;;;25.75;25.94
9335;BME280;4706;41.844;26.082;2022-10-16T11:14:35;101641.53;;;25.77;26.16
9335;BME280;4706;41.844;26.082;2022-10-16T11:17:29;101629.06;;;26.04;26.07
9335;BME280;4706;41.844;26.082;2022-10-16T11:20:23;101639.88;;;26.29;25.45
9335;BME280;4706;41.844;26.082;2022-10-16T11:22:50;101635.09;;;26.63;25.81
9335;BME280;4706;41.844;26.082;2022-10-16T11:25:29;101631.72;;;26.87;25.40
9335;BME280;4706;41.844;26.082;2022-10-16T11:30:25;101641.38;;;26.19;26.01
9335;BME280;4706;41.844;26.082;2022-10-16T11:33:04;101640.94;;;25.90;26.70
9335;BME280;4706;41.844;26.082;2022-10-16T11:38:03;101636.34;;;25.79;27.41
9335;BME280;4706;41.844;26.082;2022-10-16T11:40:37;101631.66;;;25.63;27.12
9335;BME280;4706;41.844;26.082;2022-10-16T11:43:27;101630.50;;;25.68;27.54
9335;BME280;4706;41.844;26.082;2022-10-16T11:45:58;101625.88;;;26.06;27.46
9335;BME280;4706;41.844;26.082;2022-10-16T11:48:47;101616.34;;;26.48;27.23
9335;BME280;4706;41.844;26.082;2022-10-16T11:51:42;101619.06;;;26.71;26.86
9335;BME280;4706;41.844;26.082;2022-10-16T11:54:20;101619.38;;;26.66;27.27
9335;BME280;4706;41.844;26.082;2022-10-16T11:56:56;101626.72;;;26.10;27.51
9335;BME280;4706;41.844;26.082;2022-10-16T12:02:24;101635.63;;;25.59;28.84
9335;BME280;4706;41.844;26.082;2022-10-16T12:05:06;101637.25;;;25.37;28.69
9335;BME280;4706;41.844;26.082;2022-10-16T12:07:39;101646.31;;;25.50;28.79
9335;BME280;4706;41.844;26.082;2022-10-16T12:10:23;101640.84;;;25.83;28.28
9335;BME280;4706;41.844;26.082;2022-10-16T12:12:49;101648.38;;;26.02;28.08
9335;BME280;4706;41.844;26.082;2022-10-16T12:15:26;101650.44;;;26.05;28.67
9335;BME280;4706;41.844;26.082;2022-10-16T12:17:52;101652.22;;;25.18;29.48
9335;BME280;4706;41.844;26.082;2022-10-16T12:20:30;101652.84;;;24.88;30.34
9335;BME280;4706;41.844;26.082;2022-10-16T12:22:59;101642.88;;;24.52;30.47
9335;BME280;4706;41.844;26.082;2022-10-16T12:25:39;101648.75;;;24.28;30.92
9335;BME280;4706;41.844;26.082;2022-10-16T12:30:40;101645.72;;;23.82;31.62
9335;BME280;4706;41.844;26.082;2022-10-16T12:33:27;101652.66;;;24.04;31.83
9335;BME280;4706;41.844;26.082;2022-10-16T12:35:53;101644.47;;;24.34;31.11
9335;BME280;4706;41.844;26.082;2022-10-16T12:38:27;101645.63;;;24.68;30.40
9335;BME280;4706;41.844;26.082;2022-10-16T12:41:02;101653.84;;;25.00;29.60
9335;BME280;4706;41.844;26.082;2022-10-16T12:43:41;101647.03;;;25.01;29.77
9335;BME280;4706;41.844;26.082;2022-10-16T12:48:33;101638.22;;;25.02;29.75
9335;BME280;4706;41.844;26.082;2022-10-16T12:51:21;101639.88;;;24.84;29.77
9335;BME280;4706;41.844;26.082;2022-10-16T12:54:01;101653.22;;;24.48;30.14
9335;BME280;4706;41.844;26.082;2022-10-16T13:04:31;101652.66;;;24.04;30.88
9335;BME280;4706;41.844;26.082;2022-10-16T13:07:19;101657.81;;;24.02;30.93
9335;BME280;4706;41.844;26.082;2022-10-16T13:29:14;101639.66;;;24.15;30.62
9335;BME280;4706;41.844;26.082;2022-10-16T13:31:40;101653.31;;;23.97;30.57
9335;BME280;4706;41.844;26.082;2022-10-16T13:34:12;101650.97;;;23.83;31.19
9335;BME280;4706;41.844;26.082;2022-10-16T13:36:50;101648.28;;;23.71;31.58
9335;BME280;4706;41.844;26.082;2022-10-16T13:39:26;101656.22;;;23.69;31.51
9335;BME280;4706;41.844;26.082;2022-10-16T13:42:14;101660.31;;;23.71;31.23
9335;BME280;4706;41.844;26.082;2022-10-16T13:44:52;101662.94;;;23.48;30.64
9335;BME280;4706;41.844;26.082;2022-10-16T13:47:22;101658.41;;;23.44;31.00
9335;BME280;4706;41.844;26.082;2022-10-16T13:50:04;101652.53;;;23.33;31.46
9335;BME280;4706;41.844;26.082;2022-10-16T13:52:31;101649.72;;;23.33;31.43
9335;BME280;4706;41.844;26.082;2022-10-16T13:54:56;101652.84;;;23.32;31.83
9335;BME280;4706;41.844;26.082;2022-10-16T13:57:25;101650.25;;;23.39;31.29
9335;BME280;4706;41.844;26.082;2022-10-16T13:59:51;101644.53;;;23.35;31.86
9335;BME280;4706;41.844;26.082;2022-10-16T14:02:35;101654.78;;;23.43;31.11
9335;BME280;4706;41.844;26.082;2022-10-16T14:05:04;101640.28;;;23.25;31.07
9335;BME280;4706;41.844;26.082;2022-10-16T14:07:31;101638.72;;;23.12;30.93
9335;BME280;4706;41.844;26.082;2022-10-16T14:10:04;101642.53;;;23.04;31.13
9335;BME280;4706;41.844;26.082;2022-10-16T14:12:30;101646.94;;;23.05;31.12
9335;BME280;4706;41.844;26.082;2022-10-16T14:14:57;101651.66;;;23.01;31.26
9335;BME280;4706;41.844;26.082;2022-10-16T14:17:25;101653.22;;;22.98;31.19
9335;BME280;4706;41.844;26.082;2022-10-16T14:19:54;101649.84;;;22.93;30.85
9335;BME280;4706;41.844;26.082;2022-10-16T14:24:57;101656.25;;;22.65;31.33
9335;BME280;4706;41.844;26.082;2022-10-16T14:27:32;101662.75;;;22.53;31.89
9335;BME280;4706;41.844;26.082;2022-10-16T14:32:34;101658.47;;;22.32;32.20
9335;BME280;4706;41.844;26.082;2022-10-16T14:34:59;101669.09;;;22.38;32.21
9335;BME280;4706;41.844;26.082;2022-10-16T14:37:27;101670.81;;;22.43;31.55
9335;BME280;4706;41.844;26.082;2022-10-16T14:39:54;101689.53;;;22.39;31.82